createdAt,value
2019-05-03T00:02:01.915Z,2.80
2019-05-03T00:04:31.599Z,3.60
2019-05-03T00:07:00.023Z,3.00
2019-05-03T00:09:28.529Z,3.70
2019-05-03T00:11:56.685Z,2.70
2019-05-03T00:14:25.302Z,3.80
2019-05-03T00:16:53.587Z,2.77
2019-05-03T00:19:21.996Z,3.47
2019-05-03T00:21:52.462Z,3.77
2019-05-03T00:24:22.480Z,4.20
2019-05-03T00:26:52.354Z,3.00
2019-05-03T00:29:21.997Z,3.40
2019-05-03T00:31:51.668Z,3.17
2019-05-03T00:34:24.987Z,3.77
2019-05-03T00:37:10.352Z,3.53
2019-05-03T00:39:41.844Z,3.80
2019-05-03T00:42:11.959Z,3.57
2019-05-03T00:44:42.162Z,3.37
2019-05-03T00:47:12.539Z,3.90
2019-05-03T00:49:42.588Z,3.27
2019-05-03T00:52:11.707Z,3.90
2019-05-03T00:54:42.245Z,3.40
2019-05-03T00:57:12.061Z,3.40
2019-05-03T00:59:42.025Z,3.47
2019-05-03T01:02:11.878Z,3.07
2019-05-03T01:04:40.389Z,3.67
2019-05-03T01:07:08.913Z,3.57
2019-05-03T01:09:37.452Z,3.50
2019-05-03T01:12:05.823Z,3.43
2019-05-03T01:14:35.675Z,3.77
2019-05-03T01:17:04.292Z,3.37
2019-05-03T01:19:33.209Z,4.00
2019-05-03T01:22:02.032Z,3.00
2019-05-03T01:24:32.242Z,3.47
2019-05-03T01:27:01.934Z,3.50
2019-05-03T01:29:32.278Z,3.13
2019-05-03T01:32:02.323Z,3.33
2019-05-03T01:34:32.666Z,3.67
2019-05-03T01:37:02.673Z,2.97
2019-05-03T01:39:31.910Z,3.33
2019-05-03T01:42:02.459Z,3.50
2019-05-03T01:44:30.360Z,4.70
2019-05-03T01:47:02.202Z,3.80
2019-05-03T01:49:32.162Z,2.97
2019-05-03T01:52:04.901Z,3.20
2019-05-03T01:54:33.445Z,3.33
2019-05-03T01:57:02.527Z,3.30
2019-05-03T01:59:32.081Z,3.43
2019-05-03T02:02:07.360Z,2.83
2019-05-03T02:04:36.997Z,3.70
2019-05-03T02:07:05.577Z,3.03
2019-05-03T02:09:33.977Z,3.47
2019-05-03T02:12:02.350Z,3.00
2019-05-03T02:14:31.759Z,3.90
2019-05-03T02:17:01.775Z,2.90
2019-05-03T02:19:32.546Z,3.43
2019-05-03T02:22:02.706Z,2.70
2019-05-03T02:24:32.591Z,3.50
2019-05-03T02:27:02.161Z,3.40
2019-05-03T02:29:32.387Z,3.43
2019-05-03T02:32:03.133Z,3.50
2019-05-03T02:34:32.765Z,3.20
2019-05-03T02:37:02.958Z,3.50
2019-05-03T02:39:33.428Z,2.83
2019-05-03T02:42:09.353Z,3.33
2019-05-03T02:44:35.401Z,3.13
2019-05-03T02:47:05.539Z,3.40
2019-05-03T02:49:36.019Z,2.93
2019-05-03T02:52:06.693Z,3.60
2019-05-03T02:54:35.268Z,2.70
2019-05-03T02:57:06.365Z,2.73
2019-05-03T02:59:34.720Z,3.43
2019-05-03T03:02:06.109Z,3.20
2019-05-03T03:04:35.307Z,3.07
2019-05-03T03:07:05.640Z,3.13
2019-05-03T03:09:36.013Z,3.00
2019-05-03T03:12:06.199Z,3.40
2019-05-03T03:14:36.195Z,3.27
2019-05-03T03:17:06.614Z,3.63
2019-05-03T03:19:35.548Z,2.63
2019-05-03T03:22:06.118Z,2.70
2019-05-03T03:24:36.208Z,2.80
2019-05-03T03:27:06.634Z,3.10
2019-05-03T03:29:35.961Z,2.30
2019-05-03T03:32:12.133Z,2.87
2019-05-03T03:34:56.785Z,2.47
2019-05-03T03:37:25.708Z,2.20
2019-05-03T03:39:52.999Z,1.97
2019-05-03T03:42:21.508Z,2.13
2019-05-03T03:44:51.550Z,2.07
2019-05-03T03:47:20.363Z,2.50
2019-05-03T03:49:49.683Z,1.80
2019-05-03T03:52:18.092Z,2.47
2019-05-03T03:54:46.620Z,2.10
2019-05-03T03:57:16.348Z,2.10
2019-05-03T03:59:45.416Z,1.90
2019-05-03T04:02:16.045Z,1.93
2019-05-03T04:04:45.054Z,2.10
2019-05-03T04:07:15.829Z,1.83
2019-05-03T04:09:45.719Z,1.60
2019-05-03T04:12:16.591Z,1.90
2019-05-03T04:14:52.357Z,2.20
2019-05-03T04:17:25.741Z,1.57
2019-05-03T04:19:55.943Z,1.63
2019-05-03T04:22:25.422Z,2.03
2019-05-03T04:24:55.315Z,2.67
2019-05-03T04:27:27.183Z,2.10
2019-05-03T04:29:55.735Z,1.67
2019-05-03T04:32:28.426Z,2.30
2019-05-03T04:34:56.870Z,2.20
2019-05-03T04:37:26.707Z,2.73
2019-05-03T04:39:56.020Z,2.00
2019-05-03T04:42:25.571Z,1.90
2019-05-03T04:44:56.235Z,2.30
2019-05-03T04:47:26.400Z,1.87
2019-05-03T04:49:55.520Z,2.07
2019-05-03T04:52:25.862Z,2.60
2019-05-03T04:54:56.431Z,1.80
2019-05-03T04:57:36.394Z,2.90
2019-05-03T04:59:56.122Z,2.30
2019-05-03T05:02:26.227Z,1.90
2019-05-03T05:04:55.571Z,1.90
2019-05-03T05:07:26.174Z,2.07
2019-05-03T05:09:56.249Z,2.20
2019-05-03T05:12:25.177Z,1.50
2019-05-03T05:14:56.088Z,1.60
2019-05-03T05:17:26.342Z,1.80
2019-05-03T05:20:05.350Z,1.90
2019-05-03T05:22:35.504Z,1.80
2019-05-03T05:25:08.295Z,2.03
2019-05-03T05:27:55.420Z,1.67
2019-05-03T05:30:25.190Z,1.83
2019-05-03T05:32:55.327Z,2.17
2019-05-03T05:35:24.854Z,1.60
2019-05-03T05:37:54.703Z,1.50
2019-05-03T05:40:24.573Z,2.00
2019-05-03T05:42:54.578Z,1.70
2019-05-03T05:45:24.548Z,1.40
2019-05-03T05:47:54.778Z,1.90
2019-05-03T05:50:25.377Z,2.70
2019-05-03T05:52:55.197Z,2.00
2019-05-03T05:55:34.522Z,1.77
2019-05-03T05:58:07.531Z,1.70
2019-05-03T06:00:45.159Z,2.17
2019-05-03T06:03:14.936Z,1.77
2019-05-03T06:05:44.657Z,1.90
2019-05-03T06:08:15.129Z,1.67
2019-05-03T06:10:45.292Z,2.33
2019-05-03T06:13:15.303Z,1.53
2019-05-03T06:15:57.635Z,1.60
2019-05-03T06:18:27.833Z,1.67
2019-05-03T06:21:00.667Z,1.60
2019-05-03T06:23:30.579Z,1.40
2019-05-03T06:25:59.341Z,1.83
2019-05-03T06:28:32.247Z,1.73
2019-05-03T06:31:08.230Z,1.43
2019-05-03T06:33:36.566Z,1.57
2019-05-03T06:36:05.014Z,1.47
2019-05-03T06:38:34.422Z,1.00
2019-05-03T06:41:04.699Z,1.97
2019-05-03T06:43:34.805Z,1.57
2019-05-03T06:46:05.165Z,1.17
2019-05-03T06:48:35.240Z,1.23
2019-05-03T06:51:08.748Z,1.30
2019-05-03T06:53:34.539Z,1.20
2019-05-03T06:56:04.551Z,1.30
2019-05-03T06:58:34.268Z,1.40
2019-05-03T07:01:19.932Z,1.40
2019-05-03T07:03:55.848Z,1.87
2019-05-03T07:06:36.156Z,1.30
2019-05-03T07:08:57.376Z,1.20
2019-05-03T07:11:25.712Z,1.80
2019-05-03T07:13:54.989Z,1.63
2019-05-03T07:16:25.403Z,1.60
2019-05-03T07:18:56.467Z,1.40
2019-05-03T07:21:24.740Z,1.20
2019-05-03T07:23:55.044Z,1.57
2019-05-03T07:26:25.231Z,1.40
2019-05-03T07:28:54.534Z,1.70
2019-05-03T07:31:23.034Z,1.20
2019-05-03T07:33:52.151Z,1.30
2019-05-03T07:36:20.424Z,1.57
2019-05-03T07:38:48.679Z,1.90
2019-05-03T07:41:16.933Z,1.37
2019-05-03T07:43:45.230Z,1.50
2019-05-03T07:46:14.759Z,1.60
2019-05-03T07:48:45.537Z,1.60
2019-05-03T07:51:14.448Z,1.90
2019-05-03T07:53:44.974Z,1.37
2019-05-03T07:56:15.577Z,1.50
2019-05-03T07:58:58.617Z,1.70
2019-05-03T08:01:20.469Z,1.30
2019-05-03T08:03:48.739Z,1.00
2019-05-03T08:06:17.091Z,2.63
2019-05-03T08:08:45.532Z,1.37
2019-05-03T08:11:14.452Z,1.70
2019-05-03T08:13:44.658Z,1.50
2019-05-03T08:16:13.012Z,1.33
2019-05-03T08:18:41.284Z,1.63
2019-05-03T08:21:11.175Z,1.63
2019-05-03T08:23:39.435Z,1.10
2019-05-03T08:26:08.044Z,2.30
2019-05-03T08:28:37.527Z,1.63
2019-05-03T08:31:24.655Z,1.40
2019-05-03T08:33:56.996Z,1.40
2019-05-03T08:36:25.331Z,1.10
2019-05-03T08:38:56.348Z,1.40
2019-05-03T08:41:26.601Z,1.20
2019-05-03T08:43:55.053Z,1.20
2019-05-03T08:46:25.399Z,1.97
2019-05-03T08:48:54.842Z,1.47
2019-05-03T08:51:24.964Z,1.33
2019-05-03T08:53:55.759Z,1.47
2019-05-03T08:56:24.565Z,1.07
2019-05-03T08:58:55.308Z,1.10
2019-05-03T09:01:24.978Z,1.63
2019-05-03T09:03:53.081Z,1.20
2019-05-03T09:06:21.342Z,1.20
2019-05-03T09:08:49.876Z,1.93
2019-05-03T09:11:30.621Z,1.30
2019-05-03T09:13:52.811Z,1.63
2019-05-03T09:16:21.205Z,1.40
2019-05-03T09:18:49.737Z,1.50
2019-05-03T09:21:17.991Z,1.57
2019-05-03T09:23:46.298Z,2.00
2019-05-03T09:26:15.263Z,1.63
2019-05-03T09:28:45.431Z,1.50
2019-05-03T09:31:15.497Z,1.20
2019-05-03T09:33:45.119Z,1.40
2019-05-03T09:36:14.664Z,1.53
2019-05-03T09:38:45.602Z,1.40
2019-05-03T09:41:15.059Z,1.33
2019-05-03T09:43:45.115Z,1.47
2019-05-03T09:46:14.599Z,1.47
2019-05-03T09:48:45.145Z,1.67
2019-05-03T09:51:14.701Z,1.57
2019-05-03T09:53:45.007Z,1.30
2019-05-03T09:56:15.358Z,1.40
2019-05-03T09:58:43.240Z,1.73
2019-05-03T10:01:11.523Z,1.40
2019-05-03T10:03:39.775Z,1.30
2019-05-03T10:06:08.064Z,1.33
2019-05-03T10:08:36.344Z,1.30
2019-05-03T10:11:10.414Z,1.00
2019-05-03T10:13:41.855Z,1.53
2019-05-03T10:16:09.130Z,1.17
2019-05-03T10:18:37.379Z,1.43
2019-05-03T10:21:05.753Z,1.27
2019-05-03T10:23:35.980Z,1.73
2019-05-03T10:26:05.160Z,1.43
2019-05-03T10:28:33.943Z,1.20
2019-05-03T10:31:05.567Z,1.30
2019-05-03T10:33:41.659Z,1.33
2019-05-03T10:36:09.932Z,1.20
2019-05-03T10:38:38.183Z,1.07
2019-05-03T10:41:06.433Z,1.57
2019-05-03T10:43:35.449Z,1.50
2019-05-03T10:46:05.134Z,1.30
2019-05-03T10:48:35.609Z,1.60
2019-05-03T10:51:04.753Z,1.23
2019-05-03T10:53:38.016Z,1.37
2019-05-03T10:56:23.166Z,1.10
2019-05-03T10:58:54.989Z,2.00
2019-05-03T11:01:30.968Z,1.60
2019-05-03T11:03:59.245Z,1.30
2019-05-03T11:06:27.499Z,1.20
2019-05-03T11:08:55.784Z,1.70
2019-05-03T11:11:25.900Z,1.33
2019-05-03T11:13:54.105Z,1.30
2019-05-03T11:16:22.465Z,2.07
2019-05-03T11:18:50.725Z,2.00
2019-05-03T11:21:28.198Z,1.57
2019-05-03T11:23:49.069Z,1.57
2019-05-03T11:26:17.329Z,1.20
2019-05-03T11:28:45.577Z,1.50
2019-05-03T11:31:31.960Z,1.67
2019-05-03T11:34:01.856Z,1.30
2019-05-03T11:36:31.930Z,1.67
2019-05-03T11:39:00.300Z,1.80
2019-05-03T11:41:32.706Z,1.20
2019-05-03T11:44:01.815Z,2.10
2019-05-03T11:46:30.091Z,2.10
2019-05-03T11:48:58.343Z,1.30
2019-05-03T11:51:26.603Z,1.50
2019-05-03T11:53:54.869Z,1.13
2019-05-03T11:56:24.953Z,1.53
2019-05-03T11:58:54.896Z,1.70
2019-05-03T12:01:25.601Z,1.43
2019-05-03T12:03:55.920Z,1.67
2019-05-03T12:06:24.946Z,1.30
2019-05-03T12:08:55.269Z,1.80
2019-05-03T12:11:24.448Z,1.90
2019-05-03T12:14:02.387Z,1.87
2019-05-03T12:16:54.747Z,1.43
2019-05-03T12:18:55.096Z,1.50
2019-05-03T12:21:27.064Z,1.43
2019-05-03T12:23:56.502Z,1.53
2019-05-03T12:26:27.113Z,1.53
2019-05-03T12:28:54.049Z,1.27
2019-05-03T12:31:31.622Z,1.50
2019-05-03T12:33:52.323Z,1.47
2019-05-03T12:36:20.662Z,1.60
2019-05-03T12:38:48.965Z,1.63
2019-05-03T12:41:17.484Z,1.20
2019-05-03T12:43:45.841Z,1.27
2019-05-03T12:46:16.673Z,1.27
2019-05-03T12:48:44.802Z,1.10
2019-05-03T12:51:15.179Z,1.23
2019-05-03T12:53:43.417Z,1.37
2019-05-03T12:56:13.718Z,1.20
2019-05-03T12:58:45.544Z,1.43
2019-05-03T13:01:17.871Z,1.37
2019-05-03T13:03:47.767Z,1.50
2019-05-03T13:06:16.028Z,1.30
2019-05-03T13:08:45.614Z,1.53
2019-05-03T13:11:14.299Z,1.63
2019-05-03T13:13:42.555Z,1.50
2019-05-03T13:16:12.477Z,1.33
2019-05-03T13:18:40.812Z,2.27
2019-05-03T13:21:09.067Z,1.60
2019-05-03T13:23:37.511Z,1.80
2019-05-03T13:26:06.147Z,1.20
2019-05-03T13:28:34.920Z,1.90
2019-05-03T13:31:05.463Z,1.47
2019-05-03T13:33:34.816Z,1.23
2019-05-03T13:36:03.229Z,1.23
2019-05-03T13:38:31.503Z,1.20
2019-05-03T13:40:59.755Z,1.37
2019-05-03T13:43:28.013Z,1.57
2019-05-03T13:45:56.283Z,1.80
2019-05-03T13:48:26.255Z,1.63
2019-05-03T13:50:55.141Z,1.30
2019-05-03T13:53:25.453Z,1.67
2019-05-03T13:55:55.227Z,1.40
2019-05-03T13:58:23.600Z,1.57
2019-05-03T14:00:51.884Z,1.30
2019-05-03T14:03:20.132Z,1.73
2019-05-03T14:05:48.388Z,1.40
2019-05-03T14:08:16.664Z,1.30
2019-05-03T14:10:45.589Z,1.13
2019-05-03T14:13:14.151Z,1.50
2019-05-03T14:15:42.427Z,1.37
2019-05-03T14:18:10.775Z,1.80
2019-05-03T14:20:54.939Z,1.30
2019-05-03T14:23:25.184Z,1.53
2019-05-03T14:25:52.807Z,1.13
2019-05-03T14:28:21.084Z,1.20
2019-05-03T14:30:49.339Z,1.37
2019-05-03T14:33:17.672Z,1.77
2019-05-03T14:35:45.936Z,1.40
2019-05-03T14:38:15.140Z,1.63
2019-05-03T14:40:44.858Z,1.20
2019-05-03T14:43:15.430Z,1.30
2019-05-03T14:45:43.947Z,1.87
2019-05-03T14:48:12.202Z,1.30
2019-05-03T14:50:40.468Z,2.07
2019-05-03T14:53:08.816Z,1.57
2019-05-03T14:55:45.264Z,2.07
2019-05-03T14:58:20.243Z,1.13
2019-05-03T15:00:54.566Z,1.67
2019-05-03T15:03:24.836Z,1.60
2019-05-03T15:05:55.088Z,1.60
2019-05-03T15:08:25.504Z,1.50
2019-05-03T15:10:54.703Z,1.50
2019-05-03T15:13:25.082Z,1.40
2019-05-03T15:15:54.698Z,1.43
2019-05-03T15:18:25.376Z,1.30
2019-05-03T15:20:55.017Z,1.20
2019-05-03T15:23:25.514Z,1.30
2019-05-03T15:25:54.639Z,1.40
2019-05-03T15:28:25.096Z,1.20
2019-05-03T15:30:55.116Z,1.20
2019-05-03T15:33:23.358Z,1.13
2019-05-03T15:35:51.607Z,1.13
2019-05-03T15:38:19.887Z,1.60
2019-05-03T15:40:48.213Z,1.10
2019-05-03T15:43:28.937Z,1.30
2019-05-03T15:46:14.705Z,1.20
2019-05-03T15:48:57.013Z,1.37
2019-05-03T15:51:25.265Z,1.50
2019-05-03T15:53:55.117Z,1.50
2019-05-03T15:56:25.243Z,1.77
2019-05-03T15:58:55.189Z,1.50
2019-05-03T16:01:24.876Z,1.53
2019-05-03T16:03:55.420Z,1.40
2019-05-03T16:06:24.858Z,1.40
2019-05-03T16:08:55.116Z,1.40
2019-05-03T16:11:25.213Z,1.53
2019-05-03T16:13:55.155Z,1.90
2019-05-03T16:16:24.852Z,2.07
2019-05-03T16:18:53.545Z,1.80
2019-05-03T16:21:21.872Z,1.70
2019-05-03T16:23:50.137Z,1.30
2019-05-03T16:26:18.404Z,1.43
2019-05-03T16:28:55.264Z,1.47
2019-05-03T16:31:26.607Z,1.90
2019-05-03T16:33:55.235Z,1.40
2019-05-03T16:36:23.480Z,1.27
2019-05-03T16:38:52.837Z,1.27
2019-05-03T16:41:22.395Z,1.50
2019-05-03T16:43:50.651Z,1.53
2019-05-03T16:46:19.019Z,1.43
2019-05-03T16:48:47.351Z,0.90
2019-05-03T16:51:17.336Z,1.13
2019-05-03T16:54:05.144Z,1.20
2019-05-03T16:56:35.125Z,1.00
2019-05-03T16:59:03.492Z,1.20
2019-05-03T17:01:31.754Z,1.40
2019-05-03T17:04:01.651Z,1.17
2019-05-03T17:06:40.677Z,1.03
2019-05-03T17:09:25.786Z,1.00
2019-05-03T17:12:02.135Z,1.17
2019-05-03T17:14:30.468Z,1.30
2019-05-03T17:16:59.504Z,1.20
2019-05-03T17:19:27.845Z,1.50
2019-05-03T17:21:57.184Z,1.33
2019-05-03T17:24:25.487Z,1.20
2019-05-03T17:26:55.143Z,1.70
2019-05-03T17:29:24.636Z,1.60
2019-05-03T17:31:54.997Z,1.53
2019-05-03T17:34:25.001Z,1.47
2019-05-03T17:36:54.472Z,1.40
2019-05-03T17:39:41.303Z,1.60
2019-05-03T17:42:27.607Z,1.80
2019-05-03T17:44:56.186Z,1.37
2019-05-03T17:47:25.571Z,1.73
2019-05-03T17:49:54.690Z,1.50
2019-05-03T17:52:42.947Z,1.53
2019-05-03T17:55:24.742Z,1.80
2019-05-03T17:57:55.124Z,2.00
2019-05-03T18:00:40.171Z,1.60
2019-05-03T18:03:09.622Z,2.17
2019-05-03T18:05:45.678Z,1.87
2019-05-03T18:08:18.543Z,2.03
2019-05-03T18:10:48.439Z,2.00
2019-05-03T18:13:16.688Z,2.33
2019-05-03T18:15:45.312Z,2.10
2019-05-03T18:18:15.606Z,2.43
2019-05-03T18:20:45.019Z,2.33
2019-05-03T18:23:15.296Z,2.20
2019-05-03T18:25:44.677Z,2.40
2019-05-03T18:28:14.828Z,2.57
2019-05-03T18:30:45.324Z,2.90
2019-05-03T18:33:15.246Z,3.07
2019-05-03T18:35:43.231Z,2.60
2019-05-03T18:38:11.506Z,3.40
2019-05-03T18:40:39.753Z,2.60
2019-05-03T18:43:15.854Z,2.53
2019-05-03T18:45:54.718Z,2.67
2019-05-03T18:48:26.424Z,2.60
2019-05-03T18:50:54.817Z,2.60
2019-05-03T18:53:25.054Z,3.20
2019-05-03T18:55:55.111Z,4.03
2019-05-03T18:58:24.422Z,2.97
2019-05-03T19:00:54.746Z,2.47
2019-05-03T19:03:22.810Z,2.90
2019-05-03T19:05:55.943Z,2.87
2019-05-03T19:08:44.797Z,2.87
2019-05-03T19:11:27.043Z,2.27
2019-05-03T19:13:59.544Z,2.77
2019-05-03T19:16:46.049Z,2.40
2019-05-03T19:19:16.047Z,2.83
2019-05-03T19:21:44.496Z,2.40
2019-05-03T19:24:15.109Z,2.10
2019-05-03T19:26:44.935Z,2.30
2019-05-03T19:29:14.878Z,2.37
2019-05-03T19:31:44.937Z,2.13
2019-05-03T19:34:15.304Z,2.70
2019-05-03T19:36:45.425Z,2.27
2019-05-03T19:39:14.588Z,2.40
2019-05-03T19:41:44.684Z,2.50
2019-05-03T19:44:12.839Z,2.60
2019-05-03T19:46:41.096Z,2.83
2019-05-03T19:49:09.411Z,2.37
2019-05-03T19:51:37.723Z,2.30
2019-05-03T19:54:06.051Z,2.60
2019-05-03T19:56:34.351Z,2.27
2019-05-03T19:59:04.757Z,2.80
2019-05-03T20:01:37.350Z,2.87
2019-05-03T20:04:16.219Z,2.20
2019-05-03T20:06:52.003Z,2.37
2019-05-03T20:09:21.955Z,2.33
2019-05-03T20:11:50.308Z,2.70
2019-05-03T20:14:18.623Z,2.27
2019-05-03T20:16:46.890Z,2.90
2019-05-03T20:19:20.862Z,2.97
2019-05-03T20:21:45.134Z,2.60
2019-05-03T20:24:14.895Z,2.77
2019-05-03T20:26:45.082Z,2.50
2019-05-03T20:29:14.794Z,2.90
2019-05-03T20:31:44.689Z,2.77
2019-05-03T20:34:13.124Z,3.47
2019-05-03T20:36:41.471Z,2.70
2019-05-03T20:39:09.814Z,3.13
2019-05-03T20:41:38.143Z,3.27
2019-05-03T20:44:20.180Z,2.77
2019-05-03T20:46:54.952Z,3.10
2019-05-03T20:49:22.951Z,2.77
2019-05-03T20:51:51.442Z,2.70
2019-05-03T20:54:19.824Z,2.53
2019-05-03T20:56:48.136Z,2.60
2019-05-03T20:59:16.397Z,2.50
2019-05-03T21:01:45.345Z,2.37
2019-05-03T21:04:15.393Z,2.63
2019-05-03T21:06:45.499Z,2.80
2019-05-03T21:09:14.861Z,2.40
2019-05-03T21:11:44.796Z,2.80
2019-05-03T21:14:15.259Z,3.17
2019-05-03T21:16:54.540Z,3.40
2019-05-03T21:19:35.292Z,2.87
2019-05-03T21:22:05.583Z,2.67
2019-05-03T21:24:35.854Z,2.60
2019-05-03T21:27:05.036Z,2.83
2019-05-03T21:29:35.303Z,3.20
2019-05-03T21:32:04.593Z,2.57
2019-05-03T21:34:34.553Z,3.10
2019-05-03T21:37:03.121Z,2.80
2019-05-03T21:39:31.431Z,2.97
2019-05-03T21:42:00.695Z,3.03
2019-05-03T21:44:30.613Z,3.17
2019-05-03T21:47:00.571Z,3.13
2019-05-03T21:49:36.599Z,2.80
2019-05-03T21:52:06.221Z,3.13
2019-05-03T21:54:34.682Z,3.03
2019-05-03T21:57:03.119Z,2.87
2019-05-03T21:59:31.463Z,2.83
2019-05-03T22:02:00.287Z,2.90
2019-05-03T22:04:28.551Z,2.43
2019-05-03T22:06:56.916Z,3.40
2019-05-03T22:09:25.163Z,2.90
2019-05-03T22:11:54.852Z,3.10
2019-05-03T22:14:31.221Z,2.57
2019-05-03T22:17:17.463Z,2.57
2019-05-03T22:19:47.359Z,2.33
2019-05-03T22:22:25.411Z,2.53
2019-05-03T22:24:55.453Z,2.23
2019-05-03T22:27:24.694Z,2.20
2019-05-03T22:29:54.578Z,3.20
2019-05-03T22:32:24.498Z,2.50
2019-05-03T22:34:52.947Z,2.47
2019-05-03T22:37:21.239Z,2.53
2019-05-03T22:39:49.492Z,2.43
2019-05-03T22:42:17.745Z,2.17
2019-05-03T22:44:46.368Z,2.70
2019-05-03T22:47:14.853Z,2.67
2019-05-03T22:49:45.453Z,2.40
2019-05-03T22:52:15.270Z,2.33
2019-05-03T22:54:45.083Z,2.27
2019-05-03T22:57:15.335Z,2.30
2019-05-03T22:59:44.839Z,3.37
2019-05-03T23:02:16.800Z,1.97
2019-05-03T23:04:44.786Z,2.53
2019-05-03T23:07:14.821Z,2.07
2019-05-03T23:09:44.642Z,2.60
2019-05-03T23:12:13.263Z,1.97
2019-05-03T23:14:41.622Z,2.30
2019-05-03T23:17:09.863Z,2.07
2019-05-03T23:19:40.051Z,1.80
2019-05-03T23:22:15.987Z,2.23
2019-05-03T23:24:44.237Z,2.53
2019-05-03T23:27:14.331Z,1.97
2019-05-03T23:29:42.556Z,2.40
2019-05-03T23:32:10.897Z,2.33
2019-05-03T23:34:39.226Z,2.60
2019-05-03T23:37:07.607Z,2.83
2019-05-03T23:39:35.863Z,2.63
2019-05-03T23:42:05.097Z,2.60
2019-05-03T23:44:35.151Z,2.57
2019-05-03T23:47:05.391Z,2.23
2019-05-03T23:49:35.317Z,2.60
2019-05-03T23:52:21.731Z,2.83
2019-05-03T23:54:49.981Z,1.90
2019-05-03T23:57:18.240Z,2.20
2019-05-03T23:59:46.543Z,2.50
